Portada
METAR-TAF:

METAR-TAF

Aeroports :

Munda, New Georgia, Illes Salomó

latitud: 8-19-41S, longitud: 157-15-47E, altitud: 3 m

METAR: manca

Hora: 03:59 (16:59 UTC)

Pronòstic

L'informe es va fer fa 5 hores i 49 minuts, a les 11:10 UTC
Pronòstic vàlid del 19 a les 12 UTC al 20 a les 12 UTC
Vent 10 kt del Est
Visibilitat: 1011 m
Núvols disperses a una alçada de 1600 ft
Núvols disperses a una alçada de 2700 ft
Cel ennuvolat a una alçada de 10000 ft
Cel ennuvolat a una alçada de 1600 ft
Escasses núvols a una alçada de 1700 ft, Cumulonimbus.
xàfecs de pluja

TAF: AGGM 191110Z 1912/2012 09010KT 9999 SHRA SCT016 SCT027 BKN100 INTER 1912/1918 5000 TSSH BKN016 FEW017CB Q 1012 1010 1009 1011

Observacions i pronòstics meteorològics de més de 4000 aeroports (METAR i TAF).

Les estacions disponibles són els punts grocs i vermells al mapa.

Posi el ratolí al punt desitjat per veure el nom de l'estació.

Feu clic per veure les observacions i els pronòstics meteorològics.

Per canviar el mapa: feu clic els botons verds amb una creu de color negre per apropar; al botó verd amb un guió per allunyar la imatge; o en les fletxes verdes per a mapes adjacents.


METAR-TAF: